Time;durP1;ratioP1;P1;durP2;ratioP2;P2;SDS_P1;SDS_P2;PMS_P1;PMS_P2;Temp;Humidity;BMP_temperature;BMP_pressure;BME280_temperature;BME280_humidity;BME280_pressure;Samples;Min_cycle;Max_cycle;Signal;HPM_P1;HPM_P2
2022/09/07 00:01:00;;;;;;;2.20;1.13;;;21.70;72.30;;;;;;5039822;28;20374;-76
2022/09/07 00:03:28;;;;;;;2.00;1.10;;;21.70;73.30;;;;;;5048362;28;20127;-76
2022/09/07 00:05:53;;;;;;;1.80;1.20;;;21.60;72.50;;;;;;5042515;28;20016;-76
2022/09/07 00:08:22;;;;;;;1.23;1.13;;;21.70;72.70;;;;;;5033619;28;20565;-76
2022/09/07 00:10:56;;;;;;;1.58;1.20;;;21.60;73.00;;;;;;5019928;28;20047;-76
2022/09/07 00:13:25;;;;;;;1.40;1.15;;;21.70;73.60;;;;;;5047988;28;20650;-76
2022/09/07 00:15:51;;;;;;;1.07;0.97;;;21.70;73.40;;;;;;5056961;28;20021;-76
2022/09/07 00:18:17;;;;;;;1.70;1.10;;;21.70;73.50;;;;;;5035030;28;20317;-76
2022/09/07 00:20:43;;;;;;;2.05;1.33;;;21.70;73.60;;;;;;5030985;28;20040;-76
2022/09/07 00:23:08;;;;;;;1.93;1.27;;;21.80;73.80;;;;;;5031167;28;20033;-76
2022/09/07 00:25:38;;;;;;;1.33;1.23;;;21.80;74.00;;;;;;5050070;28;20024;-76
2022/09/07 00:28:06;;;;;;;2.15;1.33;;;21.70;74.50;;;;;;5025645;28;20440;-76
2022/09/07 00:30:33;;;;;;;2.10;1.37;;;21.80;74.30;;;;;;5052165;28;20742;-76
2022/09/07 00:32:59;;;;;;;2.38;1.45;;;21.80;74.50;;;;;;5073310;28;20380;-76
2022/09/07 00:35:24;;;;;;;2.30;1.58;;;21.90;74.60;;;;;;5030877;28;20013;-76
2022/09/07 00:37:50;;;;;;;2.20;1.50;;;21.90;74.60;;;;;;5042551;28;20148;-76
2022/09/07 00:40:16;;;;;;;3.03;1.47;;;21.90;74.70;;;;;;5037605;28;20024;-76
2022/09/07 00:42:41;;;;;;;2.57;1.70;;;22.00;74.90;;;;;;5033904;28;20355;-76
2022/09/07 00:45:18;;;;;;;2.20;1.75;;;22.00;74.80;;;;;;5063032;28;20077;-76
2022/09/07 00:47:54;;;;;;;2.60;1.50;;;22.00;75.30;;;;;;5033892;28;20055;-76
2022/09/07 00:50:26;;;;;;;2.28;1.90;;;22.10;75.10;;;;;;5018922;28;20127;-76
2022/09/07 00:53:22;;;;;;;3.53;2.70;;;22.10;75.00;;;;;;5048436;28;20138;-76
2022/09/07 00:55:49;;;;;;;3.88;2.70;;;22.10;75.00;;;;;;5052733;28;20433;-76
2022/09/07 00:58:17;;;;;;;4.07;2.50;;;22.10;74.70;;;;;;5052805;28;20167;-76
2022/09/07 01:00:45;;;;;;;4.10;2.90;;;22.10;74.80;;;;;;5045463;28;20653;-76
2022/09/07 01:03:12;;;;;;;4.10;2.83;;;22.10;75.00;;;;;;5061829;28;20071;-76
2022/09/07 01:05:55;;;;;;;3.92;3.22;;;22.10;75.00;;;;;;5030730;28;20335;-76
2022/09/07 01:08:21;;;;;;;4.30;3.30;;;22.10;75.20;;;;;;5047069;28;20036;-76
2022/09/07 01:10:46;;;;;;;4.53;3.45;;;22.10;74.90;;;;;;5032464;28;20890;-76
2022/09/07 01:13:13;;;;;;;3.80;3.20;;;22.10;74.90;;;;;;5062250;28;20047;-76
2022/09/07 01:16:04;;;;;;;3.95;2.97;;;22.10;74.90;;;;;;5019994;28;20103;-76
2022/09/07 01:18:57;;;;;;;3.40;2.85;;;22.10;75.20;;;;;;5024409;28;20050;-76
2022/09/07 01:21:39;;;;;;;4.00;2.60;;;22.10;74.80;;;;;;5012600;28;20044;-76
2022/09/07 01:24:25;;;;;;;3.45;2.50;;;22.00;74.80;;;;;;5030411;28;20493;-76
2022/09/07 01:26:59;;;;;;;3.53;2.30;;;22.00;74.90;;;;;;5051287;28;20139;-76
2022/09/07 01:29:45;;;;;;;2.80;2.10;;;22.00;74.60;;;;;;5029767;28;20199;-76
2022/09/07 01:32:33;;;;;;;2.55;2.00;;;21.90;74.50;;;;;;5051085;28;20024;-76
2022/09/07 01:35:03;;;;;;;2.63;1.90;;;21.90;74.60;;;;;;4995306;28;20029;-76
2022/09/07 01:38:03;;;;;;;2.80;2.00;;;21.80;74.10;;;;;;5050954;28;20036;-76
2022/09/07 01:41:12;;;;;;;3.65;1.90;;;21.80;74.10;;;;;;5003708;28;20033;-76
2022/09/07 01:43:48;;;;;;;2.55;1.63;;;21.60;73.80;;;;;;5022318;28;20033;-76
2022/09/07 01:46:57;;;;;;;2.40;1.60;;;21.50;73.60;;;;;;5034006;28;20024;-76
2022/09/07 01:49:25;;;;;;;2.47;1.50;;;21.50;73.80;;;;;;5027470;28;20094;-76
2022/09/07 01:51:56;;;;;;;2.15;1.60;;;21.40;73.60;;;;;;5042219;28;20029;-76
2022/09/07 01:54:31;;;;;;;2.00;1.70;;;21.30;73.80;;;;;;5038671;28;20535;-76
2022/09/07 01:57:02;;;;;;;2.63;1.60;;;21.20;73.70;;;;;;5029040;28;20020;-76
2022/09/07 01:59:46;;;;;;;2.80;1.67;;;21.10;73.90;;;;;;5035370;28;20023;-77
2022/09/07 02:02:16;;;;;;;3.23;1.60;;;21.10;74.00;;;;;;5045513;28;20661;-76
2022/09/07 02:04:51;;;;;;;2.90;1.63;;;21.00;73.80;;;;;;5015294;28;20093;-76
2022/09/07 02:07:44;;;;;;;2.50;1.60;;;20.90;74.10;;;;;;5047951;28;20577;-76
2022/09/07 02:10:23;;;;;;;2.97;1.48;;;20.90;74.00;;;;;;5040614;28;20032;-76
2022/09/07 02:13:13;;;;;;;2.20;1.38;;;20.80;74.20;;;;;;5020718;28;20028;-76
2022/09/07 02:15:49;;;;;;;2.60;1.70;;;20.70;74.40;;;;;;5053096;28;20040;-76
2022/09/07 02:18:15;;;;;;;2.85;1.58;;;20.70;74.50;;;;;;5030671;28;20032;-76
2022/09/07 02:20:47;;;;;;;2.75;1.58;;;20.60;74.10;;;;;;5016993;28;20040;-76
2022/09/07 02:23:20;;;;;;;3.00;1.60;;;20.60;74.50;;;;;;5038062;28;20466;-76
2022/09/07 02:25:53;;;;;;;3.23;1.90;;;20.50;74.50;;;;;;5030475;28;20107;-76
2022/09/07 02:28:27;;;;;;;1.95;1.38;;;20.50;74.60;;;;;;5037864;28;20043;-76
2022/09/07 02:30:52;;;;;;;1.88;1.55;;;20.50;74.80;;;;;;5032892;28;20066;-76
2022/09/07 02:33:18;;;;;;;2.03;1.50;;;20.40;74.80;;;;;;5040559;28;20264;-76
2022/09/07 02:35:45;;;;;;;2.78;1.60;;;20.40;74.90;;;;;;5034421;28;20055;-76
2022/09/07 02:38:11;;;;;;;2.17;1.45;;;20.40;75.10;;;;;;5046838;28;20071;-77
2022/09/07 02:40:37;;;;;;;2.13;1.40;;;20.40;75.30;;;;;;5034242;28;20024;-76
2022/09/07 02:43:06;;;;;;;2.27;1.50;;;20.40;75.40;;;;;;5035040;28;20278;-76
2022/09/07 02:46:13;;;;;;;2.05;1.50;;;20.40;75.80;;;;;;5061613;28;20352;-76
2022/09/07 02:48:54;;;;;;;2.33;1.55;;;20.40;76.10;;;;;;5015162;28;20036;-76
2022/09/07 02:51:28;;;;;;;1.88;1.45;;;20.40;75.90;;;;;;5050090;28;20024;-76
2022/09/07 02:53:54;;;;;;;2.38;1.70;;;20.40;75.70;;;;;;5034494;28;20056;-76
2022/09/07 02:56:47;;;;;;;2.47;1.50;;;20.40;75.60;;;;;;5029747;28;20033;-76
2022/09/07 02:59:15;;;;;;;1.90;1.52;;;20.40;76.10;;;;;;5006235;28;20024;-76
2022/09/07 03:02:07;;;;;;;2.90;1.70;;;20.40;75.70;;;;;;5053802;28;20072;-76
2022/09/07 03:04:45;;;;;;;3.40;1.60;;;20.40;76.30;;;;;;5039919;28;20464;-76
2022/09/07 03:07:19;;;;;;;2.13;1.60;;;20.40;76.00;;;;;;5039472;28;21085;-76
2022/09/07 03:09:49;;;;;;;2.53;1.75;;;20.30;75.80;;;;;;5058571;28;20098;-76
2022/09/07 03:12:15;;;;;;;3.03;1.58;;;20.30;75.60;;;;;;5050735;28;20033;-76
2022/09/07 03:14:42;;;;;;;2.80;1.75;;;20.20;75.50;;;;;;5024781;28;20103;-76
2022/09/07 03:17:08;;;;;;;2.47;1.70;;;20.30;75.00;;;;;;5036057;28;20116;-76
2022/09/07 03:19:34;;;;;;;3.35;1.70;;;20.20;75.60;;;;;;5033338;28;20021;-76
2022/09/07 03:22:00;;;;;;;1.88;1.50;;;20.20;75.80;;;;;;5049422;28;20322;-76
2022/09/07 03:24:26;;;;;;;2.58;1.90;;;20.10;75.90;;;;;;5056039;28;20538;-76
2022/09/07 03:26:52;;;;;;;2.40;1.73;;;20.10;75.90;;;;;;5017432;28;20036;-76
2022/09/07 03:29:18;;;;;;;2.67;1.67;;;20.10;75.90;;;;;;5017132;28;20186;-76
2022/09/07 03:31:43;;;;;;;2.85;1.70;;;20.10;76.00;;;;;;5054763;28;20233;-76
2022/09/07 03:34:10;;;;;;;3.05;1.70;;;20.00;75.90;;;;;;5018404;28;20017;-76
2022/09/07 03:36:35;;;;;;;2.38;1.73;;;20.00;76.00;;;;;;5034472;28;20012;-76
2022/09/07 03:39:02;;;;;;;2.50;1.70;;;20.00;76.10;;;;;;5033222;28;20711;-76
2022/09/07 03:41:28;;;;;;;2.33;1.80;;;20.00;76.10;;;;;;5054935;28;20032;-76
2022/09/07 03:43:54;;;;;;;2.60;1.90;;;20.00;76.30;;;;;;5020622;28;20012;-76
2022/09/07 03:46:20;;;;;;;2.67;1.70;;;19.90;76.30;;;;;;5050188;28;20405;-76
2022/09/07 03:48:47;;;;;;;2.65;1.90;;;19.90;76.50;;;;;;5045491;28;20090;-76
2022/09/07 03:51:15;;;;;;;3.70;1.80;;;20.00;76.80;;;;;;5020674;28;20020;-76
2022/09/07 03:53:43;;;;;;;2.53;1.60;;;19.90;76.80;;;;;;5034968;28;20025;-77
2022/09/07 03:56:18;;;;;;;2.10;1.40;;;19.90;76.90;;;;;;5054110;28;20246;-77
2022/09/07 03:58:45;;;;;;;1.90;1.40;;;19.90;77.20;;;;;;5061624;28;20377;-77
2022/09/07 04:01:16;;;;;;;2.28;1.60;;;19.90;76.90;;;;;;5023131;28;20543;-76
2022/09/07 04:03:43;;;;;;;1.98;1.52;;;19.90;77.10;;;;;;5038077;28;20048;-77
2022/09/07 04:06:10;;;;;;;2.40;1.65;;;19.90;77.20;;;;;;5015408;28;20473;-76
2022/09/07 04:08:37;;;;;;;2.43;1.60;;;19.90;77.40;;;;;;5030291;28;20045;-76
2022/09/07 04:11:04;;;;;;;3.95;1.70;;;20.00;77.60;;;;;;5040322;28;20036;-76
2022/09/07 04:13:30;;;;;;;2.65;1.75;;;20.00;77.60;;;;;;5042285;28;20103;-77
2022/09/07 04:15:57;;;;;;;3.20;1.73;;;20.00;77.60;;;;;;5039199;28;20017;-76
2022/09/07 04:18:23;;;;;;;2.45;1.77;;;20.00;77.60;;;;;;5057568;28;20028;-76
2022/09/07 04:20:49;;;;;;;2.80;1.63;;;20.00;77.70;;;;;;5033897;28;20492;-77
2022/09/07 04:23:19;;;;;;;2.95;1.85;;;20.00;77.70;;;;;;5044208;28;20040;-76
2022/09/07 04:25:51;;;;;;;2.67;1.90;;;20.00;77.80;;;;;;5057163;28;20056;-76
2022/09/07 04:28:18;;;;;;;3.72;1.88;;;20.10;78.10;;;;;;5019789;28;20126;-76
2022/09/07 04:30:45;;;;;;;3.50;1.73;;;20.10;77.90;;;;;;5038292;28;20124;-76
2022/09/07 04:33:11;;;;;;;2.40;1.80;;;20.10;78.00;;;;;;5043291;28;20039;-76
2022/09/07 04:35:38;;;;;;;2.33;1.70;;;20.10;77.90;;;;;;5053774;28;20024;-76
2022/09/07 04:38:05;;;;;;;2.75;1.90;;;20.10;78.10;;;;;;5032675;28;20028;-76
2022/09/07 04:40:31;;;;;;;2.63;1.90;;;20.10;78.20;;;;;;5047567;28;20024;-76
2022/09/07 04:42:57;;;;;;;2.70;1.70;;;20.10;78.20;;;;;;5025975;28;20028;-76
2022/09/07 04:45:22;;;;;;;2.33;1.60;;;20.10;78.30;;;;;;5020427;28;20303;-76
2022/09/07 04:47:48;;;;;;;3.08;1.90;;;20.20;78.30;;;;;;5034062;28;20532;-77
2022/09/07 04:50:17;;;;;;;2.20;1.80;;;20.10;78.20;;;;;;5054449;28;20154;-77
2022/09/07 04:52:43;;;;;;;3.30;1.80;;;20.20;78.30;;;;;;5056930;28;20488;-77
2022/09/07 04:55:10;;;;;;;2.83;1.70;;;20.10;78.40;;;;;;5040926;28;20251;-76
2022/09/07 04:57:36;;;;;;;2.10;1.65;;;20.20;78.30;;;;;;5053491;28;20074;-77
2022/09/07 05:00:05;;;;;;;3.03;1.90;;;20.10;78.30;;;;;;5017035;28;20021;-77
2022/09/07 05:02:31;;;;;;;2.88;1.83;;;20.10;78.30;;;;;;4984881;28;20280;-76
2022/09/07 05:04:56;;;;;;;2.27;1.73;;;20.10;78.40;;;;;;5037589;28;20056;-76
2022/09/07 05:07:22;;;;;;;2.50;1.80;;;20.10;78.50;;;;;;5024208;28;20384;-76
2022/09/07 05:09:47;;;;;;;2.95;1.75;;;20.10;78.60;;;;;;5043601;28;20036;-76
2022/09/07 05:12:13;;;;;;;2.00;1.67;;;20.10;78.70;;;;;;5018355;28;20481;-76
2022/09/07 05:14:38;;;;;;;3.43;1.70;;;20.10;79.40;;;;;;5049330;28;20386;-76
2022/09/07 05:17:04;;;;;;;2.57;1.70;;;20.10;78.70;;;;;;5025728;28;20283;-76
2022/09/07 05:19:30;;;;;;;2.80;1.90;;;20.20;78.90;;;;;;5032122;28;20641;-76
2022/09/07 05:21:56;;;;;;;3.70;1.83;;;20.10;78.90;;;;;;5043399;28;20020;-76
2022/09/07 05:24:22;;;;;;;2.63;2.00;;;20.20;79.00;;;;;;5027668;28;20170;-76
2022/09/07 05:26:47;;;;;;;3.57;1.97;;;20.10;79.00;;;;;;5008207;28;20039;-77
2022/09/07 05:29:13;;;;;;;3.47;1.90;;;20.20;79.00;;;;;;5049371;28;20044;-77
2022/09/07 05:31:39;;;;;;;2.72;2.08;;;20.20;79.00;;;;;;5036212;28;20053;-76
2022/09/07 05:34:04;;;;;;;3.33;2.00;;;20.20;79.20;;;;;;5028986;28;20496;-76
2022/09/07 05:36:31;;;;;;;3.70;2.20;;;20.20;79.30;;;;;;5024347;28;20147;-78
2022/09/07 05:38:57;;;;;;;3.70;2.40;;;20.20;79.20;;;;;;5003289;28;20563;-77
2022/09/07 05:41:25;;;;;;;4.50;2.70;;;20.20;79.30;;;;;;4995063;28;20036;-78
2022/09/07 05:43:52;;;;;;;4.72;3.28;;;20.20;79.40;;;;;;5039824;28;20040;-78
2022/09/07 05:46:18;;;;;;;4.93;3.33;;;20.30;79.40;;;;;;5018624;28;20028;-79
2022/09/07 05:48:44;;;;;;;6.78;3.70;;;20.20;79.40;;;;;;5025224;28;20568;-79
2022/09/07 05:51:12;;;;;;;6.18;3.80;;;20.20;79.50;;;;;;5041699;28;20024;-79
2022/09/07 05:53:39;;;;;;;5.17;3.17;;;20.30;79.50;;;;;;5017916;28;20025;-76
2022/09/07 05:56:06;;;;;;;5.43;3.67;;;20.30;79.60;;;;;;5023824;28;20104;-76
2022/09/07 05:58:32;;;;;;;5.13;3.67;;;20.30;79.60;;;;;;5013487;28;21145;-76
2022/09/07 06:01:06;;;;;;;6.15;4.35;;;20.30;80.30;;;;;;5048314;28;20541;-76
2022/09/07 06:03:33;;;;;;;6.00;3.90;;;20.30;79.70;;;;;;5026556;28;20045;-78
2022/09/07 06:06:07;;;;;;;6.77;4.10;;;20.30;79.70;;;;;;5006312;28;20256;-79
2022/09/07 06:08:35;;;;;;;7.47;4.30;;;20.30;79.90;;;;;;5049828;28;20117;-79
2022/09/07 06:11:12;;;;;;;6.38;4.40;;;20.30;79.70;;;;;;5023713;28;20033;-79
2022/09/07 06:13:38;;;;;;;7.70;4.72;;;20.30;80.00;;;;;;5040465;28;20032;-76
2022/09/07 06:16:06;;;;;;;6.85;4.68;;;20.30;79.60;;;;;;5033779;28;20668;-76
2022/09/07 06:18:34;;;;;;;5.87;4.17;;;20.20;79.70;;;;;;5038143;28;20038;-77
2022/09/07 06:21:04;;;;;;;8.02;4.97;;;20.20;79.90;;;;;;5030273;28;20062;-76
2022/09/07 06:23:31;;;;;;;6.63;4.45;;;20.20;80.30;;;;;;5038631;28;20028;-76
2022/09/07 06:25:57;;;;;;;7.35;4.75;;;20.20;80.50;;;;;;4992182;28;20029;-76
2022/09/07 06:28:43;;;;;;;6.33;4.23;;;20.30;80.90;;;;;;5034967;28;20552;-76
2022/09/07 06:31:12;;;;;;;6.90;4.35;;;20.30;81.30;;;;;;5027760;28;20024;-76
2022/09/07 06:33:38;;;;;;;7.57;4.72;;;20.40;81.00;;;;;;5034096;28;20143;-76
2022/09/07 06:36:20;;;;;;;6.68;4.63;;;20.50;81.10;;;;;;5017016;28;20887;-76
2022/09/07 06:38:46;;;;;;;6.72;3.92;;;20.50;81.20;;;;;;5032596;28;20024;-76
2022/09/07 06:41:21;;;;;;;6.77;4.50;;;20.50;81.00;;;;;;5016217;28;20173;-76
2022/09/07 06:43:46;;;;;;;5.70;4.10;;;20.60;81.30;;;;;;5014333;28;20027;-76
2022/09/07 06:46:13;;;;;;;6.63;4.78;;;20.60;80.90;;;;;;5033242;28;20024;-76
2022/09/07 06:48:39;;;;;;;7.03;4.78;;;20.70;80.90;;;;;;5035547;28;20032;-76
2022/09/07 06:51:17;;;;;;;6.37;4.33;;;20.70;80.90;;;;;;5016090;28;20267;-76
2022/09/07 06:53:44;;;;;;;7.07;4.53;;;20.80;81.10;;;;;;5019575;28;20036;-76
2022/09/07 06:56:13;;;;;;;6.30;4.22;;;20.80;81.10;;;;;;5014196;28;20052;-77
2022/09/07 06:58:39;;;;;;;6.88;4.38;;;20.90;81.30;;;;;;5028066;28;20451;-76
2022/09/07 07:01:14;;;;;;;6.78;4.13;;;20.90;81.50;;;;;;5020419;28;20603;-76
2022/09/07 07:03:41;;;;;;;6.07;4.53;;;21.00;81.90;;;;;;5047188;28;20439;-75
2022/09/07 07:06:08;;;;;;;6.72;4.40;;;21.10;82.10;;;;;;5038777;28;20445;-76
2022/09/07 07:08:34;;;;;;;6.57;4.50;;;21.20;82.10;;;;;;5008049;28;20094;-76
2022/09/07 07:11:05;;;;;;;6.25;4.40;;;21.30;82.40;;;;;;5031295;28;20536;-76
2022/09/07 07:13:30;;;;;;;6.87;3.97;;;21.40;82.00;;;;;;4992501;28;20029;-76
2022/09/07 07:16:04;;;;;;;6.68;4.20;;;21.50;82.30;;;;;;5012777;28;20043;-76
2022/09/07 07:18:31;;;;;;;6.75;4.40;;;21.60;82.40;;;;;;5011238;28;20476;-76
2022/09/07 07:20:56;;;;;;;6.33;4.13;;;21.80;82.70;;;;;;5041687;28;20617;-76
2022/09/07 07:23:22;;;;;;;6.47;4.32;;;22.00;82.80;;;;;;5038189;28;20036;-76
2022/09/07 07:25:48;;;;;;;6.43;4.40;;;22.10;82.70;;;;;;5036784;28;20024;-76
2022/09/07 07:28:13;;;;;;;7.38;4.75;;;22.20;82.50;;;;;;5025644;28;20097;-76
2022/09/07 07:30:39;;;;;;;6.70;4.50;;;22.40;82.70;;;;;;5015046;28;20048;-77
2022/09/07 07:33:06;;;;;;;7.93;4.93;;;22.50;83.00;;;;;;5021313;28;20021;-75
2022/09/07 07:35:33;;;;;;;6.25;4.10;;;22.70;83.90;;;;;;5036372;28;20031;-77
2022/09/07 07:37:58;;;;;;;6.73;4.40;;;23.00;84.90;;;;;;5010433;28;20021;-76
2022/09/07 07:40:25;;;;;;;6.65;4.57;;;23.30;85.40;;;;;;5035742;28;20028;-76
2022/09/07 07:42:51;;;;;;;6.40;4.22;;;23.70;85.30;;;;;;5026967;28;20123;-77
2022/09/07 07:45:16;;;;;;;7.23;4.63;;;24.00;85.00;;;;;;5031721;28;20359;-76
2022/09/07 07:47:42;;;;;;;7.22;4.20;;;24.40;84.80;;;;;;5026511;28;20459;-76
2022/09/07 07:50:08;;;;;;;4.73;3.57;;;24.70;84.10;;;;;;5015909;28;20137;-77
2022/09/07 07:52:36;;;;;;;5.50;4.25;;;25.00;83.90;;;;;;4993951;28;20035;-75
2022/09/07 07:55:03;;;;;;;6.40;4.32;;;25.30;83.00;;;;;;5041089;28;20055;-76
2022/09/07 07:57:29;;;;;;;6.97;3.92;;;25.60;83.00;;;;;;5033161;28;20028;-76
2022/09/07 07:59:55;;;;;;;4.50;3.33;;;25.90;83.40;;;;;;5012895;28;20025;-76
2022/09/07 08:02:21;;;;;;;5.68;3.53;;;26.30;83.90;;;;;;5049512;28;20645;-76
2022/09/07 08:04:47;;;;;;;5.85;4.05;;;26.60;83.20;;;;;;5053705;28;20174;-76
2022/09/07 08:07:14;;;;;;;5.43;3.27;;;27.00;82.70;;;;;;5013334;28;20028;-76
2022/09/07 08:09:42;;;;;;;5.60;3.17;;;27.30;82.60;;;;;;5021671;28;20108;-76
2022/09/07 08:12:10;;;;;;;4.43;2.78;;;27.70;81.60;;;;;;5035390;28;20154;-76
2022/09/07 08:14:39;;;;;;;3.75;2.45;;;28.00;80.80;;;;;;5018407;28;20095;-76
2022/09/07 08:17:05;;;;;;;3.60;2.40;;;28.40;80.80;;;;;;5037930;28;20454;-76
2022/09/07 08:19:31;;;;;;;3.58;2.10;;;28.80;80.20;;;;;;5033561;28;20055;-76
2022/09/07 08:21:57;;;;;;;3.28;2.10;;;29.10;80.00;;;;;;5057311;28;20171;-76
2022/09/07 08:24:23;;;;;;;3.40;1.83;;;29.50;78.30;;;;;;5010638;28;20333;-76
2022/09/07 08:26:48;;;;;;;2.78;1.67;;;29.80;77.90;;;;;;5029757;28;20052;-77
2022/09/07 08:29:14;;;;;;;2.73;1.40;;;30.10;77.30;;;;;;5031766;28;20775;-76
2022/09/07 08:31:40;;;;;;;2.78;1.48;;;30.40;76.20;;;;;;5036150;28;20091;-76
2022/09/07 08:34:06;;;;;;;4.27;1.50;;;30.70;74.70;;;;;;5045549;28;20044;-76
2022/09/07 08:36:32;;;;;;;2.72;1.52;;;30.90;73.90;;;;;;5035743;28;20451;-76
2022/09/07 08:38:58;;;;;;;3.33;1.73;;;31.20;73.50;;;;;;5002595;28;20087;-76
2022/09/07 08:41:51;;;;;;;1.83;1.30;;;31.60;73.50;;;;;;5035750;28;20094;-76
2022/09/07 08:44:40;;;;;;;2.13;1.50;;;31.90;69.30;;;;;;5048620;28;20119;-75
2022/09/07 08:47:36;;;;;;;2.58;1.27;;;32.20;66.80;;;;;;5030392;28;20063;-76
2022/09/07 08:50:29;;;;;;;1.90;1.20;;;32.60;66.00;;;;;;5014577;28;20041;-76
2022/09/07 08:53:12;;;;;;;2.17;1.42;;;32.80;64.90;;;;;;5057966;28;20527;-77
2022/09/07 08:55:39;;;;;;;2.13;1.20;;;33.00;64.70;;;;;;5006292;28;20126;-77
2022/09/07 08:58:16;;;;;;;2.40;1.13;;;33.00;65.30;;;;;;5037262;28;20025;-77
2022/09/07 09:00:43;;;;;;;3.30;1.33;;;33.00;62.40;;;;;;5056127;28;20301;-76
2022/09/07 09:03:26;;;;;;;1.40;0.93;;;33.00;63.60;;;;;;5021840;28;20079;-77
2022/09/07 09:06:09;;;;;;;3.03;1.20;;;33.00;61.70;;;;;;5029075;28;20114;-77
2022/09/07 09:09:09;;;;;;;2.90;1.30;;;33.10;60.90;;;;;;5035092;28;20509;-77
2022/09/07 09:11:46;;;;;;;2.47;1.30;;;33.20;61.40;;;;;;5041778;28;20488;-76
2022/09/07 09:14:28;;;;;;;2.72;1.17;;;33.30;59.10;;;;;;5051269;28;20036;-77
2022/09/07 09:16:59;;;;;;;1.95;1.23;;;33.40;59.50;;;;;;5022533;28;20275;-77
2022/09/07 09:19:46;;;;;;;2.85;1.50;;;33.50;60.00;;;;;;5051362;28;20218;-77
2022/09/07 09:22:20;;;;;;;2.60;1.30;;;33.60;61.80;;;;;;5009314;28;20020;-77
2022/09/07 09:25:11;;;;;;;2.13;1.40;;;33.80;57.80;;;;;;5035246;28;20055;-76
2022/09/07 09:27:37;;;;;;;2.35;1.48;;;33.70;54.80;;;;;;5012994;28;20301;-77
2022/09/07 09:30:11;;;;;;;2.38;1.30;;;33.60;56.60;;;;;;5047496;28;21541;-77
2022/09/07 09:32:43;;;;;;;2.83;1.17;;;33.40;54.30;;;;;;5034234;28;20995;-76
2022/09/07 09:35:23;;;;;;;1.40;1.17;;;33.20;55.20;;;;;;5036521;28;20028;-77
2022/09/07 09:37:49;;;;;;;2.20;1.20;;;33.00;55.30;;;;;;5038317;28;20685;-77
2022/09/07 09:40:22;;;;;;;2.97;1.10;;;32.80;55.90;;;;;;5037750;28;20029;-76
2022/09/07 09:43:16;;;;;;;2.53;1.20;;;32.60;55.40;;;;;;5037314;28;20185;-76
2022/09/07 09:45:45;;;;;;;2.22;1.17;;;32.60;54.20;;;;;;5017752;28;20445;-76
2022/09/07 09:48:19;;;;;;;2.35;1.02;;;32.40;56.20;;;;;;5016807;28;20017;-76
2022/09/07 09:50:53;;;;;;;2.08;1.30;;;32.30;55.40;;;;;;5029625;28;20040;-77
2022/09/07 09:53:26;;;;;;;2.47;1.10;;;32.20;56.10;;;;;;5008787;28;20020;-76
2022/09/07 09:55:53;;;;;;;2.50;1.33;;;32.30;56.20;;;;;;5035277;28;20504;-77
2022/09/07 09:58:34;;;;;;;1.70;1.30;;;32.40;58.20;;;;;;5038383;28;20016;-77
2022/09/07 10:01:05;;;;;;;3.67;1.30;;;32.60;55.70;;;;;;5032861;28;20454;-77
2022/09/07 10:03:33;;;;;;;2.67;1.42;;;32.80;57.40;;;;;;5022121;28;20048;-77
2022/09/07 10:06:14;;;;;;;1.60;1.30;;;32.90;56.80;;;;;;5036158;28;20111;-76
2022/09/07 10:08:55;;;;;;;2.67;1.50;;;33.00;54.30;;;;;;5006292;28;20032;-77
2022/09/07 10:11:43;;;;;;;2.63;1.58;;;33.10;55.00;;;;;;5028285;28;20032;-76
2022/09/07 10:14:18;;;;;;;3.03;1.38;;;33.40;54.80;;;;;;5034207;28;20019;-76
2022/09/07 10:16:44;;;;;;;2.45;1.80;;;33.70;54.40;;;;;;5021370;28;20032;-77
2022/09/07 10:19:32;;;;;;;1.87;1.43;;;33.80;56.20;;;;;;5041143;28;20531;-77
2022/09/07 10:22:00;;;;;;;2.50;1.60;;;34.00;51.20;;;;;;5036317;28;20092;-76
2022/09/07 10:24:32;;;;;;;2.45;1.80;;;34.00;54.20;;;;;;5050544;28;20412;-76
2022/09/07 10:26:57;;;;;;;2.92;1.50;;;33.90;52.30;;;;;;5056245;28;20066;-76
2022/09/07 10:29:34;;;;;;;2.53;1.58;;;33.70;52.90;;;;;;5006164;28;20847;-77
2022/09/07 10:32:37;;;;;;;3.57;1.70;;;33.50;51.80;;;;;;5034924;28;20424;-77
2022/09/07 10:35:13;;;;;;;2.50;1.70;;;33.40;51.60;;;;;;5018746;28;20408;-76
2022/09/07 10:38:00;;;;;;;2.88;1.63;;;33.40;53.40;;;;;;5059234;28;20060;-77
2022/09/07 10:40:32;;;;;;;2.30;1.38;;;33.50;52.00;;;;;;5049518;28;20218;-76
2022/09/07 10:43:04;;;;;;;2.28;1.23;;;33.60;54.10;;;;;;5032879;28;20032;-77
2022/09/07 10:45:54;;;;;;;2.83;1.70;;;33.60;51.80;;;;;;5018708;28;20095;-76
2022/09/07 10:48:49;;;;;;;2.78;1.45;;;33.50;50.60;;;;;;5006545;28;20031;-77
2022/09/07 10:51:36;;;;;;;2.15;1.17;;;33.30;51.10;;;;;;5037441;28;20497;-76
2022/09/07 10:54:20;;;;;;;2.40;1.33;;;33.20;51.00;;;;;;5018484;28;20039;-77
2022/09/07 10:57:21;;;;;;;1.92;1.23;;;33.20;52.30;;;;;;5057070;28;20040;-76
2022/09/07 10:59:55;;;;;;;2.23;1.20;;;33.00;50.30;;;;;;5021292;28;20063;-76
2022/09/07 11:02:31;;;;;;;1.83;1.10;;;33.00;51.40;;;;;;5041572;28;20041;-76
2022/09/07 11:05:26;;;;;;;2.13;1.10;;;33.10;51.80;;;;;;5053974;28;20145;-76
2022/09/07 11:08:17;;;;;;;2.33;1.00;;;33.20;50.60;;;;;;5012748;28;20133;-77
2022/09/07 11:11:00;;;;;;;2.47;1.20;;;33.50;50.60;;;;;;5030906;28;20114;-77
2022/09/07 11:13:30;;;;;;;1.27;1.03;;;33.70;51.80;;;;;;5043582;28;20025;-77
2022/09/07 11:15:59;;;;;;;2.55;1.25;;;33.90;52.50;;;;;;5041970;28;20649;-76
2022/09/07 11:18:29;;;;;;;2.80;1.50;;;34.10;52.80;;;;;;5061299;28;21092;-76
2022/09/07 11:20:57;;;;;;;3.08;1.27;;;34.20;52.40;;;;;;5042387;28;20021;-77
2022/09/07 11:23:59;;;;;;;1.48;1.35;;;34.40;51.10;;;;;;5022537;28;20040;-77
2022/09/07 11:26:30;;;;;;;2.77;1.20;;;34.50;49.00;;;;;;5030660;28;20501;-77
2022/09/07 11:29:41;;;;;;;2.83;1.30;;;34.60;49.60;;;;;;5053443;28;20017;-77
2022/09/07 11:32:11;;;;;;;1.15;0.80;;;34.50;48.30;;;;;;5044259;28;20090;-77
2022/09/07 11:35:11;;;;;;;2.28;1.00;;;34.40;48.30;;;;;;5034811;28;20043;-77
2022/09/07 11:37:48;;;;;;;1.35;1.08;;;34.30;48.00;;;;;;5008077;28;20513;-77
2022/09/07 11:40:25;;;;;;;1.53;1.00;;;34.10;47.20;;;;;;5030955;28;20044;-76
2022/09/07 11:43:01;;;;;;;1.20;0.90;;;34.00;46.60;;;;;;5013994;28;20239;-77
2022/09/07 11:45:56;;;;;;;1.73;1.00;;;34.00;45.80;;;;;;5011128;28;20488;-76
2022/09/07 11:48:49;;;;;;;1.48;0.90;;;33.80;45.20;;;;;;5060676;28;20029;-76
2022/09/07 11:51:45;;;;;;;2.28;1.00;;;33.70;46.20;;;;;;5021688;28;20393;-76
2022/09/07 11:54:28;;;;;;;1.53;1.00;;;33.60;45.80;;;;;;5027819;28;20151;-77
2022/09/07 11:57:24;;;;;;;1.83;0.80;;;33.40;45.70;;;;;;5056653;28;20614;-77
2022/09/07 12:00:07;;;;;;;2.63;0.90;;;33.30;45.50;;;;;;5021981;28;20051;-76
2022/09/07 12:03:00;;;;;;;1.98;1.10;;;33.30;46.20;;;;;;4996878;28;20041;-77
2022/09/07 12:05:48;;;;;;;3.03;0.98;;;33.30;46.80;;;;;;5041740;28;20041;-76
2022/09/07 12:09:01;;;;;;;1.10;0.80;;;33.60;47.00;;;;;;5043686;28;20469;-76
2022/09/07 12:12:05;;;;;;;2.22;0.90;;;33.70;46.20;;;;;;5037369;28;20041;-77
2022/09/07 12:14:50;;;;;;;1.90;1.02;;;34.10;46.70;;;;;;5031667;28;20029;-77
2022/09/07 12:17:46;;;;;;;2.42;1.05;;;34.20;46.30;;;;;;5032001;28;20089;-76
2022/09/07 12:20:36;;;;;;;2.35;1.00;;;34.30;45.40;;;;;;5061653;28;20226;-76
2022/09/07 12:23:24;;;;;;;1.63;1.10;;;34.30;44.60;;;;;;5031904;28;20025;-77
2022/09/07 12:25:50;;;;;;;2.38;1.05;;;34.20;44.30;;;;;;5017409;28;20067;-76
2022/09/07 12:28:17;;;;;;;1.23;1.10;;;34.30;47.10;;;;;;5037567;28;20712;-76
2022/09/07 12:30:51;;;;;;;2.00;1.20;;;34.40;47.20;;;;;;5034226;28;20032;-77
2022/09/07 12:33:23;;;;;;;2.28;1.30;;;34.50;46.20;;;;;;5012733;28;20064;-76
2022/09/07 12:35:49;;;;;;;1.60;1.03;;;34.60;45.80;;;;;;5042924;28;20020;-76
2022/09/07 12:38:17;;;;;;;2.25;1.13;;;34.60;45.50;;;;;;5045837;28;20025;-77
2022/09/07 12:40:45;;;;;;;4.22;1.10;;;34.60;44.60;;;;;;4996360;28;20032;-77
2022/09/07 12:43:13;;;;;;;1.83;0.90;;;34.50;44.70;;;;;;5040908;28;20135;-77
2022/09/07 12:45:39;;;;;;;1.60;0.93;;;34.50;44.00;;;;;;5030670;28;20040;-76
2022/09/07 12:48:14;;;;;;;1.85;0.93;;;34.40;44.90;;;;;;5048346;28;20097;-76
2022/09/07 12:50:54;;;;;;;1.30;0.87;;;34.40;44.00;;;;;;5053458;28;20040;-76
2022/09/07 12:53:28;;;;;;;1.83;1.00;;;34.30;43.00;;;;;;5032992;28;20020;-76
2022/09/07 12:56:14;;;;;;;1.30;0.88;;;34.30;43.60;;;;;;5025347;28;20058;-77
2022/09/07 12:58:58;;;;;;;1.92;1.10;;;34.20;44.10;;;;;;5036180;28;20021;-77
2022/09/07 13:01:44;;;;;;;1.63;0.90;;;34.10;43.30;;;;;;5038054;28;20036;-76
2022/09/07 13:04:34;;;;;;;2.73;1.13;;;34.00;42.60;;;;;;5037413;28;20045;-76
2022/09/07 13:07:15;;;;;;;2.03;1.00;;;33.90;42.50;;;;;;5028529;28;20028;-77
2022/09/07 13:09:52;;;;;;;1.90;0.90;;;33.60;42.80;;;;;;5060848;28;20040;-77
2022/09/07 13:12:46;;;;;;;2.03;0.85;;;33.50;44.00;;;;;;5029383;28;20054;-77
2022/09/07 13:15:32;;;;;;;1.95;1.00;;;33.50;44.30;;;;;;5025081;28;20039;-76
2022/09/07 13:17:57;;;;;;;2.43;0.90;;;33.30;43.20;;;;;;5049384;28;20481;-76
2022/09/07 13:20:29;;;;;;;1.13;0.75;;;33.30;45.40;;;;;;5046840;28;20151;-77